Time;durP1;ratioP1;P1;durP2;ratioP2;P2;SDS_P1;SDS_P2;PMS_P1;PMS_P2;Temp;Humidity;BMP_temperature;BMP_pressure;BME280_temperature;BME280_humidity;BME280_pressure;Samples;Min_cycle;Max_cycle;Signal;HPM_P1;HPM_P2
2023/05/17 00:00:49;;;;;;;6.50;4.70;;;;;;;19.99;57.73;101569.83;106318;1279;24271;-48
2023/05/17 00:03:16;;;;;;;6.60;4.80;;;;;;;19.98;57.65;101566.86;106185;1276;24449;-51
2023/05/17 00:05:43;;;;;;;5.30;4.50;;;;;;;19.97;57.36;101567.81;106258;1276;24505;-51
2023/05/17 00:08:11;;;;;;;6.80;4.70;;;;;;;19.96;56.98;101563.42;106309;1276;22575;-51
2023/05/17 00:10:38;;;;;;;5.00;4.40;;;;;;;19.96;56.87;101563.43;106453;1277;22587;-51
2023/05/17 00:13:05;;;;;;;6.40;4.30;;;;;;;19.94;56.66;101564.77;106415;1276;24215;-48
2023/05/17 00:15:32;;;;;;;5.00;4.10;;;;;;;19.94;56.30;101567.94;106293;1276;24268;-50
2023/05/17 00:17:59;;;;;;;5.50;4.10;;;;;;;19.94;56.01;101565.11;106352;1276;22557;-49
2023/05/17 00:20:27;;;;;;;5.20;4.70;;;;;;;19.94;55.70;101562.11;106299;1276;22619;-49
2023/05/17 00:22:54;;;;;;;5.30;3.70;;;;;;;19.94;55.44;101562.83;106209;1282;22528;-48
2023/05/17 00:25:21;;;;;;;7.40;4.80;;;;;;;19.94;55.35;101563.36;106362;1277;22533;-49
2023/05/17 00:27:48;;;;;;;4.80;4.20;;;;;;;19.94;54.92;101564.77;106398;1276;22628;-49
2023/05/17 00:30:16;;;;;;;5.20;3.80;;;;;;;19.94;54.70;101565.44;106347;1276;26152;-49
2023/05/17 00:32:45;;;;;;;4.50;3.80;;;;;;;19.93;54.62;101563.23;106333;1284;24220;-49
2023/05/17 00:35:13;;;;;;;4.90;3.50;;;;;;;19.93;54.36;101566.55;106419;1280;22542;-49
2023/05/17 00:37:46;;;;;;;4.00;3.60;;;;;;;19.93;54.05;101571.52;106341;1276;22581;-48
2023/05/17 00:40:15;;;;;;;4.80;3.90;;;;;;;19.91;53.63;101570.37;106294;1276;25435;-49
2023/05/17 00:42:42;;;;;;;4.60;4.10;;;;;;;19.90;53.31;101574.80;105265;1283;1003436;-49
2023/05/17 00:45:09;;;;;;;4.50;3.90;;;;;;;19.90;53.09;101571.14;106368;1276;24349;-52
2023/05/17 00:47:36;;;;;;;6.10;3.90;;;;;;;19.87;52.76;101570.73;106431;1272;25571;-53
2023/05/17 00:50:05;;;;;;;5.00;4.40;;;;;;;19.85;52.53;101565.20;106379;1272;22530;-50
2023/05/17 00:52:32;;;;;;;4.40;3.90;;;;;;;19.82;52.34;101568.33;106187;1274;24281;-50
2023/05/17 00:54:59;;;;;;;4.90;4.40;;;;;;;19.79;52.10;101567.42;106413;1280;22533;-51
2023/05/17 00:57:28;;;;;;;4.60;4.20;;;;;;;19.77;51.97;101564.70;106158;1280;26630;-50
2023/05/17 00:59:55;;;;;;;4.90;3.90;;;;;;;19.74;51.66;101560.96;105852;1279;1003440;-50
2023/05/17 01:02:23;;;;;;;5.00;3.60;;;;;;;19.73;51.47;101558.20;106317;1281;22519;-49
2023/05/17 01:04:50;;;;;;;6.10;4.40;;;;;;;19.71;51.28;101554.57;106307;1280;22384;-51
2023/05/17 01:07:17;;;;;;;7.00;4.30;;;;;;;19.68;51.11;101554.91;106353;1276;22719;-48
2023/05/17 01:09:45;;;;;;;5.10;4.30;;;;;;;19.66;51.06;101553.63;106546;1276;24239;-51
2023/05/17 01:12:37;;;;;;;6.20;4.60;;;;;;;19.63;51.06;101548.81;106350;1274;22584;-49
2023/05/17 01:15:14;;;;;;;4.70;4.20;;;;;;;19.61;51.19;101547.84;106369;1275;24262;-48
2023/05/17 01:18:04;;;;;;;4.50;3.70;;;;;;;19.58;51.33;101543.76;109853;1279;23096;-49
2023/05/17 01:20:36;;;;;;;6.30;3.90;;;;;;;19.57;51.25;101544.35;109879;1283;22984;-49
2023/05/17 01:23:22;;;;;;;6.40;3.90;;;;;;;19.56;51.27;101541.23;110052;1275;22684;-49
2023/05/17 01:26:07;;;;;;;5.70;4.10;;;;;;;19.55;51.46;101544.80;110012;1275;22172;-49
2023/05/17 01:28:37;;;;;;;5.80;4.30;;;;;;;19.56;51.60;101541.08;109974;1277;23010;-49
2023/05/17 01:31:07;;;;;;;4.30;3.80;;;;;;;19.56;51.68;101544.08;109899;1281;22366;-50
2023/05/17 01:33:36;;;;;;;6.00;4.40;;;;;;;19.57;51.64;101542.21;110023;1276;22543;-49
2023/05/17 01:36:04;;;;;;;4.50;4.10;;;;;;;19.59;51.68;101540.73;109937;1273;22325;-49
2023/05/17 01:38:31;;;;;;;4.80;4.10;;;;;;;19.60;51.57;101539.80;110089;1277;22273;-49
2023/05/17 01:41:05;;;;;;;6.80;5.50;;;;;;;19.62;51.60;101537.58;110066;1273;22147;-49
2023/05/17 01:43:51;;;;;;;7.30;4.00;;;;;;;19.64;51.50;101534.02;110094;1273;22302;-49
2023/05/17 01:46:31;;;;;;;4.10;3.60;;;;;;;19.65;51.50;101534.46;110071;1279;22287;-49
2023/05/17 01:49:10;;;;;;;4.80;3.40;;;;;;;19.67;51.44;101531.76;110021;1275;22752;-49
2023/05/17 01:51:48;;;;;;;5.70;3.60;;;;;;;19.68;51.23;101529.77;110071;1277;22130;-49
2023/05/17 01:54:19;;;;;;;4.10;3.70;;;;;;;19.70;51.34;101527.35;109962;1279;23202;-49
2023/05/17 01:56:47;;;;;;;;;;;;;;;19.71;51.15;101524.14;110030;1277;22432;-49
2023/05/17 01:59:14;;;;;;;4.50;3.90;;;;;;;19.73;50.98;101525.48;110008;1279;22421;-49
2023/05/17 02:01:41;;;;;;;6.40;3.50;;;;;;;19.72;50.97;101526.91;110057;1279;22451;-49
2023/05/17 02:04:09;;;;;;;5.50;3.70;;;;;;;19.73;50.86;101523.70;110040;1279;22282;-49
2023/05/17 02:06:36;;;;;;;4.40;3.90;;;;;;;19.74;50.82;101522.09;110081;1279;23260;-49
2023/05/17 02:09:03;;;;;;;5.40;3.80;;;;;;;19.74;50.72;101520.66;110029;1280;22125;-49
2023/05/17 02:11:31;;;;;;;4.00;3.40;;;;;;;19.75;50.64;101522.36;110032;1273;22393;-50
2023/05/17 02:13:58;;;;;;;4.90;3.80;;;;;;;19.77;50.49;101525.80;110074;1279;22153;-49
2023/05/17 02:16:25;;;;;;;5.30;4.00;;;;;;;19.78;50.36;101520.66;110097;1272;22422;-49
2023/05/17 02:18:52;;;;;;;6.20;3.70;;;;;;;19.80;50.26;101522.13;110133;1272;22916;-49
2023/05/17 02:21:19;;;;;;;4.60;3.50;;;;;;;19.81;49.91;101520.47;110110;1273;22901;-49
2023/05/17 02:23:46;;;;;;;6.10;4.10;;;;;;;19.82;49.58;101522.36;110066;1273;22317;-50
2023/05/17 02:26:13;;;;;;;4.60;4.10;;;;;;;19.83;49.05;101522.16;110102;1273;22111;-49
2023/05/17 02:28:40;;;;;;;4.60;4.10;;;;;;;19.85;48.77;101516.08;110054;1273;22776;-49
2023/05/17 02:31:08;;;;;;;5.40;3.90;;;;;;;19.87;48.28;101516.69;110095;1273;22110;-49
2023/05/17 02:33:36;;;;;;;5.90;3.90;;;;;;;19.90;47.87;101513.39;110116;1273;23063;-50
2023/05/17 02:36:03;;;;;;;4.70;3.70;;;;;;;19.92;47.78;101514.65;110079;1273;22296;-50
2023/05/17 02:38:30;;;;;;;4.40;3.60;;;;;;;19.94;47.70;101520.18;110271;1278;22390;-49
2023/05/17 02:40:57;;;;;;;3.80;3.00;;;;;;;19.96;47.24;101522.94;110128;1272;22286;-49
2023/05/17 02:43:24;;;;;;;5.80;3.50;;;;;;;19.98;46.95;101524.09;110127;1272;22328;-49
2023/05/17 02:45:51;;;;;;;5.60;3.30;;;;;;;20.00;46.57;101521.84;109383;1273;1002370;-49
2023/05/17 02:48:19;;;;;;;3.70;3.20;;;;;;;20.02;46.20;101522.95;110113;1276;22294;-49
2023/05/17 02:50:46;;;;;;;3.60;2.70;;;;;;;20.00;46.09;101520.61;110174;1273;22401;-49
2023/05/17 02:53:13;;;;;;;3.80;2.90;;;;;;;20.08;45.52;101519.52;110126;1273;22726;-49
2023/05/17 02:55:40;;;;;;;3.50;3.20;;;;;;;20.13;45.43;101516.30;110081;1273;22377;-49
2023/05/17 02:58:07;;;;;;;5.10;3.30;;;;;;;20.16;44.96;101514.36;110071;1278;22116;-49
2023/05/17 03:00:34;;;;;;;3.60;2.80;;;;;;;20.20;44.62;101512.27;110132;1273;22142;-49
2023/05/17 03:03:01;;;;;;;3.30;2.90;;;;;;;20.23;44.18;101507.88;109952;1277;22152;-49
2023/05/17 03:05:29;;;;;;;3.40;2.70;;;;;;;20.27;44.03;101507.85;110063;1278;22277;-49
2023/05/17 03:07:56;;;;;;;2.90;2.60;;;;;;;20.30;43.84;101505.73;110024;1274;22325;-49
2023/05/17 03:10:23;;;;;;;3.70;2.80;;;;;;;20.33;43.37;101501.89;110030;1278;22220;-49
2023/05/17 03:12:51;;;;;;;3.90;2.40;;;;;;;20.36;43.18;101500.85;110085;1278;22352;-49
2023/05/17 03:15:20;;;;;;;2.90;2.60;;;;;;;20.39;42.91;101498.77;110032;1278;22404;-49
2023/05/17 03:17:47;;;;;;;5.60;2.90;;;;;;;20.43;42.69;101498.40;110079;1278;22155;-49
2023/05/17 03:20:16;;;;;;;3.80;2.70;;;;;;;20.46;42.34;101500.70;109991;1276;22228;-49
2023/05/17 03:22:44;;;;;;;3.80;2.50;;;;;;;20.49;42.24;101499.30;109987;1276;22872;-49
2023/05/17 03:25:12;;;;;;;3.70;2.70;;;;;;;20.53;42.19;101500.88;110071;1278;22812;-49
2023/05/17 03:27:39;;;;;;;3.20;2.90;;;;;;;20.56;42.08;101500.73;110123;1273;23215;-49
2023/05/17 03:30:07;;;;;;;3.20;2.90;;;;;;;20.59;41.97;101499.34;110068;1278;22175;-49
2023/05/17 03:32:37;;;;;;;4.40;2.60;;;;;;;20.61;42.17;101497.66;109993;1278;22754;-49
2023/05/17 03:35:06;;;;;;;3.10;2.90;;;;;;;20.63;42.21;101500.03;110114;1272;22461;-49
2023/05/17 03:37:34;;;;;;;3.70;2.70;;;;;;;20.65;42.41;101503.27;110127;1273;22285;-49
2023/05/17 03:40:01;;;;;;;4.10;2.80;;;;;;;20.67;42.40;101505.44;110060;1274;22151;-49
2023/05/17 03:42:29;;;;;;;3.90;3.10;;;;;;;20.71;42.76;101508.23;110073;1278;22180;-49
2023/05/17 03:44:56;;;;;;;4.80;2.90;;;;;;;20.74;42.94;101507.34;110071;1278;22084;-49
2023/05/17 03:47:24;;;;;;;4.60;3.50;;;;;;;20.77;43.41;101507.55;109942;1272;22467;-49
2023/05/17 03:49:52;;;;;;;5.10;3.30;;;;;;;20.78;44.15;101511.71;110072;1272;22437;-49
2023/05/17 03:52:19;;;;;;;3.00;2.70;;;;;;;20.79;44.83;101508.31;110062;1271;23123;-49
2023/05/17 03:54:47;;;;;;;5.90;3.40;;;;;;;20.78;45.43;101506.61;110024;1271;22128;-50
2023/05/17 03:57:15;;;;;;;4.30;3.50;;;;;;;20.78;46.35;101514.88;110122;1272;22220;-49
2023/05/17 03:59:43;;;;;;;4.20;3.40;;;;;;;20.78;47.17;101514.18;110045;1278;22413;-49
2023/05/17 04:02:10;;;;;;;5.80;3.70;;;;;;;20.79;48.06;101520.50;110127;1273;22302;-49
2023/05/17 04:04:37;;;;;;;3.30;3.00;;;;;;;20.80;48.72;101521.86;110083;1274;22332;-49
2023/05/17 04:07:05;;;;;;;3.60;3.20;;;;;;;20.81;49.33;101522.69;110197;1272;22142;-49
2023/05/17 04:09:33;;;;;;;5.00;3.40;;;;;;;20.81;49.99;101521.80;110125;1278;22392;-50
2023/05/17 04:12:00;;;;;;;4.50;2.80;;;;;;;20.81;50.73;101519.48;110054;1273;22973;-49
2023/05/17 04:14:28;;;;;;;3.50;3.20;;;;;;;20.82;50.96;101518.56;110024;1275;22233;-49
2023/05/17 04:16:56;;;;;;;3.80;2.80;;;;;;;20.84;51.15;101521.48;110024;1274;22193;-49
2023/05/17 04:19:23;;;;;;;3.60;3.00;;;;;;;20.85;51.39;101524.08;109963;1274;22363;-50
2023/05/17 04:21:51;;;;;;;4.90;3.20;;;;;;;20.89;51.63;101528.45;109968;1281;22842;-49
2023/05/17 04:24:18;;;;;;;4.40;2.90;;;;;;;20.92;51.83;101526.49;109786;1282;22162;-49
2023/05/17 04:26:45;;;;;;;4.90;3.30;;;;;;;20.97;51.94;101526.94;109830;1278;22536;-49
2023/05/17 04:29:12;;;;;;;8.30;3.40;;;;;;;21.00;52.32;101528.36;109904;1277;23140;-50
2023/05/17 04:31:39;;;;;;;5.30;3.10;;;;;;;21.06;52.48;101529.52;109920;1281;22301;-49
2023/05/17 04:34:07;;;;;;;5.50;3.60;;;;;;;21.12;52.72;101529.71;109912;1277;23130;-50
2023/05/17 04:36:34;;;;;;;6.40;3.10;;;;;;;21.16;52.83;101525.64;109942;1274;22999;-49
2023/05/17 04:39:02;;;;;;;4.80;2.80;;;;;;;21.16;52.86;101529.71;109902;1277;23077;-49
2023/05/17 04:41:30;;;;;;;5.90;3.00;;;;;;;21.13;52.92;101532.48;109910;1274;22289;-49
2023/05/17 04:43:58;;;;;;;4.90;3.40;;;;;;;21.15;52.97;101534.85;109874;1281;22853;-49
2023/05/17 04:46:29;;;;;;;7.00;3.60;;;;;;;21.18;53.16;101539.66;110106;1272;22183;-49
2023/05/17 04:48:57;;;;;;;5.90;3.30;;;;;;;21.20;53.26;101542.52;110220;1271;22358;-49
2023/05/17 04:51:25;;;;;;;5.60;3.30;;;;;;;21.24;53.37;101545.33;110357;1270;22507;-49
2023/05/17 04:53:53;;;;;;;5.10;3.70;;;;;;;21.27;53.70;101545.01;110417;1270;22277;-50
2023/05/17 04:56:21;;;;;;;5.10;3.50;;;;;;;21.28;54.04;101550.73;110055;1279;22328;-49
2023/05/17 04:58:48;;;;;;;3.90;3.50;;;;;;;21.31;54.27;101553.75;109950;1276;22402;-50
2023/05/17 05:01:18;;;;;;;5.60;3.40;;;;;;;21.37;54.40;101560.14;109883;1277;23142;-50
2023/05/17 05:03:46;;;;;;;4.50;3.30;;;;;;;21.43;54.17;101558.73;109750;1274;23024;-50
2023/05/17 05:06:15;;;;;;;3.90;3.50;;;;;;;21.48;53.99;101560.79;109801;1278;22245;-49
2023/05/17 05:08:42;;;;;;;4.70;3.30;;;;;;;21.52;54.06;101563.17;109717;1283;22219;-50
2023/05/17 05:11:10;;;;;;;3.80;3.20;;;;;;;21.59;54.16;101562.48;109813;1278;22166;-49
2023/05/17 05:13:37;;;;;;;6.40;3.40;;;;;;;21.65;54.36;101567.58;109798;1279;22427;-49
2023/05/17 05:16:05;;;;;;;4.70;3.30;;;;;;;21.77;54.30;101572.42;109774;1280;22163;-50
2023/05/17 05:18:33;;;;;;;6.20;3.60;;;;;;;21.87;54.29;101574.71;109888;1274;22644;-49
2023/05/17 05:21:01;;;;;;;4.10;3.20;;;;;;;21.94;54.31;101576.23;109858;1283;22410;-49
2023/05/17 05:23:28;;;;;;;7.20;3.50;;;;;;;22.00;54.30;101577.66;109691;1280;22439;-50
2023/05/17 05:25:55;;;;;;;5.00;3.20;;;;;;;22.10;54.28;101577.29;109778;1274;22215;-50
2023/05/17 05:28:22;;;;;;;5.40;3.50;;;;;;;22.17;54.10;101582.36;109814;1275;22963;-50
2023/05/17 05:30:50;;;;;;;9.10;4.40;;;;;;;22.21;54.20;101583.36;109875;1276;22177;-50
2023/05/17 05:33:18;;;;;;;4.80;3.60;;;;;;;22.36;53.87;101585.33;110041;1269;22393;-50
2023/05/17 05:35:46;;;;;;;6.30;4.20;;;;;;;22.49;53.50;101587.19;110154;1277;22133;-50
2023/05/17 05:38:13;;;;;;;5.90;3.80;;;;;;;22.59;53.42;101590.88;110118;1271;22246;-49
2023/05/17 05:40:41;;;;;;;6.90;4.10;;;;;;;22.64;53.52;101594.85;110014;1278;22311;-49
2023/05/17 05:43:08;;;;;;;5.40;3.80;;;;;;;22.66;53.69;101592.08;109993;1276;23089;-50
2023/05/17 05:45:35;;;;;;;4.40;3.60;;;;;;;22.65;53.94;101594.08;110083;1274;22198;-49
2023/05/17 05:48:04;;;;;;;7.10;4.20;;;;;;;22.64;54.23;101590.61;110205;1278;23159;-50
2023/05/17 05:50:33;;;;;;;5.60;3.80;;;;;;;22.63;54.49;101592.20;110136;1272;22360;-50
2023/05/17 05:53:02;;;;;;;6.80;3.80;;;;;;;22.70;54.73;101599.64;110275;1277;22374;-50
2023/05/17 05:55:46;;;;;;;3.50;3.20;;;;;;;22.84;54.78;101600.38;110101;1270;22493;-50
2023/05/17 05:58:14;;;;;;;3.80;3.30;;;;;;;22.99;54.38;101607.79;110073;1274;22369;-50
2023/05/17 06:00:41;;;;;;;3.50;3.10;;;;;;;23.12;54.28;101611.63;110114;1273;22350;-50
2023/05/17 06:03:09;;;;;;;5.90;3.50;;;;;;;23.27;53.99;101609.45;110185;1271;22315;-50
2023/05/17 06:05:36;;;;;;;9.00;3.40;;;;;;;23.42;53.69;101612.09;110206;1273;22858;-50
2023/05/17 06:08:03;;;;;;;6.20;3.70;;;;;;;23.61;53.34;101610.38;110322;1277;22157;-50
2023/05/17 06:10:32;;;;;;;8.30;3.90;;;;;;;23.80;52.53;101612.14;110242;1278;22181;-50
2023/05/17 06:13:00;;;;;;;8.20;4.80;;;;;;;24.00;52.04;101615.29;110364;1271;22195;-49
2023/05/17 06:15:27;;;;;;;6.00;4.00;;;;;;;24.27;51.19;101614.65;110430;1269;22444;-50
2023/05/17 06:17:54;;;;;;;4.90;3.90;;;;;;;24.52;50.40;101620.44;109694;1275;1006993;-50
2023/05/17 06:20:21;;;;;;;6.40;3.90;;;;;;;24.87;49.57;101613.45;110472;1268;22592;-50
2023/05/17 06:22:48;;;;;;;5.70;4.00;;;;;;;25.23;48.68;101616.11;110426;1275;22275;-49
2023/05/17 06:25:15;;;;;;;4.80;3.90;;;;;;;25.64;47.90;101614.30;110529;1269;22167;-49
2023/05/17 06:27:42;;;;;;;6.20;4.30;;;;;;;26.00;46.83;101618.45;109650;1275;1002506;-50
2023/05/17 06:30:10;;;;;;;6.50;4.40;;;;;;;26.28;46.07;101617.12;110512;1269;22141;-50
2023/05/17 06:32:37;;;;;;;9.80;4.20;;;;;;;26.56;45.49;101612.54;110121;1274;22132;-50
2023/05/17 06:35:05;;;;;;;4.50;3.90;;;;;;;26.81;44.95;101609.76;110475;1275;23113;-50
2023/05/17 06:37:32;;;;;;;7.00;4.20;;;;;;;27.04;44.33;101610.58;110093;1275;22429;-49
2023/05/17 06:40:07;;;;;;;8.70;4.10;;;;;;;27.30;43.84;101607.70;110250;1275;22127;-50
2023/05/17 06:42:42;;;;;;;8.50;4.20;;;;;;;27.57;43.15;101604.14;110472;1268;22296;-50
2023/05/17 06:45:11;;;;;;;5.70;3.90;;;;;;;27.77;42.66;101604.63;110486;1268;22369;-50
2023/05/17 06:47:38;;;;;;;4.90;4.30;;;;;;;28.02;42.38;101610.27;110423;1273;22302;-50
2023/05/17 06:50:06;;;;;;;4.50;3.60;;;;;;;28.24;41.59;101611.48;110149;1275;22214;-50
2023/05/17 06:52:34;;;;;;;6.20;4.00;;;;;;;28.41;41.04;101610.46;110320;1272;22088;-50
2023/05/17 06:55:01;;;;;;;7.70;4.20;;;;;;;28.52;40.62;101614.13;110203;1267;22449;-50
2023/05/17 06:57:28;;;;;;;5.40;3.80;;;;;;;28.63;40.32;101614.89;110463;1268;22167;-50
2023/05/17 06:59:55;;;;;;;5.70;3.80;;;;;;;28.75;39.92;101611.48;110265;1269;22315;-51
2023/05/17 07:02:22;;;;;;;4.80;4.10;;;;;;;28.91;39.77;101615.13;110483;1275;22882;-50
2023/05/17 07:04:49;;;;;;;5.70;4.40;;;;;;;29.10;39.48;101616.19;110468;1268;22289;-49
2023/05/17 07:07:17;;;;;;;4.60;3.40;;;;;;;29.30;39.08;101615.71;110526;1267;22501;-50
2023/05/17 07:09:44;;;;;;;7.30;3.80;;;;;;;29.51;39.15;101618.90;110415;1275;22912;-50
2023/05/17 07:12:11;;;;;;;5.90;4.30;;;;;;;29.76;38.71;101618.06;110495;1268;22408;-47
2023/05/17 07:14:38;;;;;;;5.30;4.10;;;;;;;30.02;37.65;101617.85;110478;1275;22289;-48
2023/05/17 07:17:05;;;;;;;5.40;3.90;;;;;;;30.23;37.03;101620.10;110536;1267;22149;-47
2023/05/17 07:19:32;;;;;;;6.70;4.10;;;;;;;30.33;36.77;101618.98;110485;1273;22276;-47
2023/05/17 07:22:00;;;;;;;8.40;3.80;;;;;;;30.44;36.47;101619.02;110437;1268;23063;-47
2023/05/17 07:24:27;;;;;;;18.60;4.40;;;;;;;30.50;36.17;101621.15;110475;1272;23035;-48
2023/05/17 07:26:54;;;;;;;8.30;3.90;;;;;;;30.52;36.19;101620.84;110455;1268;22282;-49
2023/05/17 07:29:21;;;;;;;7.60;3.60;;;;;;;30.53;35.82;101618.75;110415;1268;23147;-49
2023/05/17 07:31:48;;;;;;;6.00;3.80;;;;;;;30.48;35.63;101617.59;110538;1275;22142;-50
2023/05/17 07:34:15;;;;;;;4.70;3.60;;;;;;;30.40;35.66;101621.05;110457;1275;23168;-50
2023/05/17 07:36:42;;;;;;;6.70;4.20;;;;;;;30.30;35.47;101619.77;110518;1268;22186;-49
2023/05/17 07:39:09;;;;;;;5.10;3.30;;;;;;;30.15;35.31;101622.93;110517;1268;22266;-50
2023/05/17 07:41:36;;;;;;;4.60;3.60;;;;;;;29.96;35.19;101624.50;110488;1275;22312;-49
2023/05/17 07:44:03;;;;;;;4.10;3.70;;;;;;;29.74;35.58;101622.00;110470;1269;22410;-50
2023/05/17 07:46:30;;;;;;;4.00;3.40;;;;;;;29.51;35.85;101628.85;110492;1275;22886;-50
2023/05/17 07:48:58;;;;;;;4.30;3.80;;;;;;;29.27;35.99;101631.70;110444;1269;22116;-50
2023/05/17 07:51:25;;;;;;;5.90;3.70;;;;;;;29.04;36.39;101633.71;110448;1275;22104;-49
2023/05/17 07:53:52;;;;;;;3.90;3.50;;;;;;;28.83;36.93;101636.74;110438;1275;22131;-50
2023/05/17 07:56:19;;;;;;;5.70;3.70;;;;;;;28.66;37.11;101640.48;110453;1268;22134;-50
2023/05/17 07:58:46;;;;;;;8.00;4.10;;;;;;;28.54;37.34;101643.23;110459;1268;22298;-50
2023/05/17 08:01:13;;;;;;;7.20;3.80;;;;;;;28.40;37.29;101641.77;110316;1271;22821;-50
2023/05/17 08:03:46;;;;;;;3.90;3.10;;;;;;;28.27;37.43;101646.43;110433;1275;23087;-50
2023/05/17 08:06:15;;;;;;;7.10;3.90;;;;;;;28.16;37.62;101649.81;110449;1271;22460;-50
2023/05/17 08:08:43;;;;;;;6.70;3.40;;;;;;;28.07;37.63;101656.42;110127;1272;22347;-49
2023/05/17 08:11:10;;;;;;;6.30;3.70;;;;;;;28.00;37.66;101660.63;110459;1275;22099;-49
2023/05/17 08:13:37;;;;;;;5.40;3.80;;;;;;;27.92;37.28;101660.85;110477;1268;22119;-50
2023/05/17 08:16:06;;;;;;;4.60;3.60;;;;;;;27.88;37.54;101663.16;110490;1269;22369;-50
2023/05/17 08:18:43;;;;;;;4.00;3.40;;;;;;;27.84;37.64;101662.06;110481;1268;22405;-49
2023/05/17 08:21:10;;;;;;;6.80;4.00;;;;;;;27.79;37.78;101663.70;110164;1272;22349;-49
2023/05/17 08:23:39;;;;;;;4.40;3.40;;;;;;;27.72;38.10;101662.85;110134;1275;22403;-50
2023/05/17 08:26:06;;;;;;;4.80;3.60;;;;;;;27.66;38.40;101664.93;110497;1268;22150;-49
2023/05/17 08:28:33;;;;;;;4.40;3.30;;;;;;;27.61;38.54;101661.23;110445;1270;22379;-50
2023/05/17 08:31:00;;;;;;;5.00;3.30;;;;;;;27.57;38.37;101666.70;110294;1274;22818;-50
2023/05/17 08:33:27;;;;;;;4.60;3.60;;;;;;;27.55;38.41;101673.13;110291;1275;22349;-50
2023/05/17 08:35:56;;;;;;;4.40;3.50;;;;;;;27.53;38.68;101668.98;110515;1268;22388;-50
2023/05/17 08:38:23;;;;;;;3.40;3.10;;;;;;;27.48;39.04;101663.36;110478;1268;23110;-50
2023/05/17 08:40:54;;;;;;;5.50;3.60;;;;;;;27.39;39.25;101657.78;110220;1274;23019;-49
2023/05/17 08:43:21;;;;;;;4.00;3.30;;;;;;;27.32;39.33;101657.77;110541;1268;22194;-50
2023/05/17 08:45:51;;;;;;;3.70;3.40;;;;;;;27.27;39.55;101656.92;110438;1268;22356;-49
2023/05/17 08:48:19;;;;;;;3.50;3.10;;;;;;;27.23;39.88;101654.70;110466;1268;22110;-50
2023/05/17 08:50:46;;;;;;;4.40;3.20;;;;;;;27.21;39.16;101655.42;110499;1269;22215;-49
2023/05/17 08:53:13;;;;;;;8.10;3.60;;;;;;;27.13;38.65;101653.18;110494;1268;22322;-49
2023/05/17 08:55:42;;;;;;;4.90;3.20;;;;;;;27.04;38.84;101650.86;110217;1268;23367;-50
2023/05/17 08:58:09;;;;;;;5.80;3.40;;;;;;;26.97;38.96;101648.35;110445;1276;22372;-50
2023/05/17 09:00:36;;;;;;;5.30;3.30;;;;;;;26.93;39.31;101648.34;110146;1275;22196;-49
2023/05/17 09:03:05;;;;;;;4.10;2.90;;;;;;;26.92;39.18;101645.71;110082;1271;22321;-50
2023/05/17 09:05:32;;;;;;;2.90;2.60;;;;;;;26.87;39.29;101648.80;109982;1278;23145;-49
2023/05/17 09:07:59;;;;;;;4.30;3.20;;;;;;;26.82;39.07;101648.61;109967;1278;22209;-49
2023/05/17 09:10:27;;;;;;;4.80;3.20;;;;;;;26.79;38.55;101645.85;110229;1273;22487;-50
2023/05/17 09:12:54;;;;;;;4.60;2.70;;;;;;;26.76;38.29;101645.92;110203;1278;22186;-49
2023/05/17 09:15:22;;;;;;;3.50;2.70;;;;;;;26.73;38.03;101646.45;110073;1270;23203;-50
2023/05/17 09:17:53;;;;;;;5.50;3.20;;;;;;;26.73;38.19;101642.39;110114;1274;23246;-50
2023/05/17 09:20:24;;;;;;;4.20;3.20;;;;;;;26.73;38.70;101644.48;110019;1278;22437;-50
2023/05/17 09:22:51;;;;;;;3.60;3.10;;;;;;;26.77;39.07;101644.41;110198;1271;22760;-50
2023/05/17 09:25:19;;;;;;;3.80;3.30;;;;;;;26.81;39.63;101643.16;110266;1272;22446;-49
2023/05/17 09:27:47;;;;;;;3.50;2.80;;;;;;;26.85;39.99;101643.05;110191;1278;23166;-50
2023/05/17 09:30:14;;;;;;;4.20;3.00;;;;;;;26.87;39.65;101639.33;110234;1271;22938;-49
2023/05/17 09:32:45;;;;;;;6.30;3.50;;;;;;;26.89;39.12;101642.73;110513;1269;22069;-49
2023/05/17 09:35:12;;;;;;;4.40;3.00;;;;;;;26.91;39.07;101648.15;110471;1275;22634;-50
2023/05/17 09:37:39;;;;;;;5.60;2.90;;;;;;;26.96;39.69;101645.60;110574;1268;22173;-50
2023/05/17 09:40:07;;;;;;;8.30;2.80;;;;;;;27.01;39.87;101643.79;110315;1274;23056;-50
2023/05/17 09:42:38;;;;;;;4.50;3.10;;;;;;;27.06;39.90;101639.67;110370;1270;22349;-50
2023/05/17 09:45:05;;;;;;;5.50;3.10;;;;;;;27.08;40.03;101638.22;110324;1268;23243;-49
2023/05/17 09:47:36;;;;;;;6.60;2.90;;;;;;;27.11;40.02;101637.68;110246;1268;22538;-50
2023/05/17 09:50:04;;;;;;;5.30;3.10;;;;;;;27.16;39.92;101632.98;110525;1275;22523;-49
2023/05/17 09:52:31;;;;;;;3.80;3.00;;;;;;;27.16;39.70;101631.96;110534;1272;22130;-50
2023/05/17 09:54:58;;;;;;;2.70;2.40;;;;;;;27.13;39.38;101630.91;110506;1275;22123;-50
2023/05/17 09:57:27;;;;;;;4.90;2.90;;;;;;;27.12;39.63;101629.40;110206;1272;22111;-50
2023/05/17 09:59:54;;;;;;;4.70;2.90;;;;;;;27.15;39.17;101625.92;110511;1268;22754;-49
2023/05/17 10:02:27;;;;;;;6.20;3.10;;;;;;;27.17;39.09;101622.41;110120;1274;22376;-50
2023/05/17 10:04:55;;;;;;;5.10;2.80;;;;;;;27.16;39.15;101619.44;110314;1275;22159;-50
2023/05/17 10:07:24;;;;;;;4.00;3.10;;;;;;;27.14;39.10;101615.48;110556;1270;22281;-50
2023/05/17 10:09:54;;;;;;;3.60;2.80;;;;;;;27.14;38.53;101611.60;110553;1268;22577;-49
2023/05/17 10:12:22;;;;;;;3.40;3.00;;;;;;;27.14;38.56;101610.50;110513;1268;22126;-49
2023/05/17 10:14:51;;;;;;;2.90;2.40;;;;;;;27.15;38.42;101612.22;110573;1268;22181;-50
2023/05/17 10:17:18;;;;;;;3.20;2.70;;;;;;;27.18;37.64;101606.50;110532;1276;22426;-50
2023/05/17 10:19:45;;;;;;;4.10;2.80;;;;;;;27.26;37.83;101606.06;110514;1275;23009;-50
2023/05/17 10:22:13;;;;;;;3.20;2.70;;;;;;;27.33;37.85;101599.23;110543;1268;23059;-50
2023/05/17 10:24:53;;;;;;;2.80;2.60;;;;;;;27.37;37.95;101597.13;110527;1273;22134;-49
2023/05/17 10:27:20;;;;;;;3.50;2.80;;;;;;;27.41;38.38;101594.19;110311;1274;22444;-50
2023/05/17 10:29:47;;;;;;;5.00;2.90;;;;;;;27.42;38.56;101593.75;110573;1268;22291;-50
2023/05/17 10:32:16;;;;;;;4.00;3.10;;;;;;;27.40;38.39;101593.36;110539;1269;22163;-50
2023/05/17 10:34:44;;;;;;;3.40;2.60;;;;;;;27.38;38.60;101590.33;110288;1272;22142;-50
2023/05/17 10:37:23;;;;;;;3.50;2.90;;;;;;;27.34;38.66;101585.08;110507;1271;22235;-50
2023/05/17 10:39:51;;;;;;;3.20;2.90;;;;;;;27.29;38.77;101591.88;110529;1275;22403;-49
2023/05/17 10:42:20;;;;;;;3.50;2.90;;;;;;;27.26;39.21;101592.28;110569;1275;22874;-50
2023/05/17 10:44:47;;;;;;;2.70;2.40;;;;;;;27.22;38.92;101591.71;110019;1271;365291;-50
2023/05/17 10:47:14;;;;;;;2.90;2.50;;;;;;;27.17;38.82;101590.33;110250;1275;22395;-49
2023/05/17 10:49:46;;;;;;;3.80;2.50;;;;;;;27.13;38.53;101588.66;110546;1269;22416;-50
2023/05/17 10:52:19;;;;;;;2.90;2.60;;;;;;;27.10;38.32;101585.95;110515;1271;22184;-50
2023/05/17 10:54:48;;;;;;;3.40;3.00;;;;;;;27.06;38.57;101588.17;110534;1268;22885;-50
2023/05/17 10:57:37;;;;;;;3.80;2.70;;;;;;;27.04;38.53;101593.90;110506;1275;22156;-50
2023/05/17 11:00:09;;;;;;;3.50;2.60;;;;;;;26.98;38.96;101592.93;110583;1272;22886;-49
2023/05/17 11:02:41;;;;;;;3.80;2.70;;;;;;;26.92;39.37;101595.15;110108;1268;22623;-49
2023/05/17 11:05:21;;;;;;;5.10;3.10;;;;;;;26.91;40.15;101599.66;110297;1268;22317;-50
2023/05/17 11:07:48;;;;;;;3.40;3.10;;;;;;;26.91;40.68;101601.09;110495;1270;22186;-49
2023/05/17 11:10:16;;;;;;;3.40;3.10;;;;;;;26.92;40.92;101602.85;110565;1268;22387;-49
2023/05/17 11:12:45;;;;;;;4.40;3.10;;;;;;;26.91;40.70;101601.98;110604;1268;22370;-50
2023/05/17 11:15:14;;;;;;;4.10;2.70;;;;;;;26.87;41.16;101602.48;110554;1275;22215;-50
2023/05/17 11:17:53;;;;;;;4.30;3.10;;;;;;;26.86;41.63;101595.12;110531;1275;22125;-50
2023/05/17 11:20:26;;;;;;;5.30;3.60;;;;;;;26.86;41.93;101594.92;110544;1268;22712;-50
2023/05/17 11:23:04;;;;;;;3.50;3.10;;;;;;;26.90;42.04;101591.92;110554;1268;22170;-50